This is the latest recevied weather packets stored in our database for station/object N7NMS-13. If no packets are shown the sender has not sent any weather packets the latest 1 day(s).
| Time | Temp. | Humidity | Pressure | Rain* | Wind** | Luminosity | Snow |
|---|---|---|---|---|---|---|---|
| 1778031051 | 17.78° C | 62% | - | 0 mm | - | - | - |
| 1778030451 | 17.78° C | 62% | - | 0 mm | - | - | - |
| 1778029851 | 17.22° C | 61% | - | 0 mm | - | - | - |
| 1778027450 | 19.44° C | 52% | - | 0 mm | - | - | - |
| 1778026850 | 20.56° C | 49% | - | 0 mm | - | - | - |
| 1778026250 | 21.67° C | 47% | - | 0 mm | - | - | - |
| 1778022049 | 22.78° C | 41% | - | 0 mm | - | - | - |
| 1778019018 | 23.33° C | 39% | - | 0 mm | - | - | - |
| 1778018418 | 23.33° C | 39% | - | 0 mm | - | - | - |
| 1778016017 | 23.89° C | 37% | - | 0 mm | - | - | - |
| 1778015417 | 24.44° C | 36% | - | 0 mm | - | - | - |
| 1778014817 | 23.89° C | 34% | - | 0 mm | - | - | - |
| 1778011816 | 24.44° C | 32% | - | 0 mm | - | - | - |
| 1778011216 | 24.44° C | 30% | - | 0 mm | - | - | - |
| 1778008215 | 25.56° C | 28% | - | 0 mm | - | - | - |
| 1778007615 | 25° C | 30% | - | 0 mm | - | - | - |
| 1778005814 | 25° C | 32% | - | 0 mm | - | - | - |
| 1778004614 | 24.44° C | 33% | - | 0 mm | - | - | - |
| 1778004014 | 24.44° C | 33% | - | 0 mm | - | - | - |
| 1778001013 | 22.22° C | 43% | - | 0 mm | - | - | - |
| 1777997412 | 22.22° C | 44% | - | 0 mm | - | - | - |
| 1777996812 | 22.22° C | 46% | - | 0 mm | - | - | - |
* Rain latest hour (hover to see other rain measurements)
** Current wind speed in m/s (hover to see current wind gust speed)